Clarksburg, WV

10:48 AM EDT on May 25, 2015 (GMT -0400)
Benedum | | Change Station
CLOSE
Current Station
Airport
Location: Clarksburg,
Elevation: 1204 ft
Nearby Weather Stations

Elev 1204 ft 39.30 °N, 80.23 °W | Updated 55 minutes ago

Clear
Clear
74 °F
Feels Like 74 °F
N
10
Wind Variable Wind from SSW

Today
High -- | Low -- °F
--% Chance of Precip.
Yesterday
High -- | Low -- °F
Precip. -- in
6:00 AM 8:36 PM
Waxing Crescent, 49% visible
Pressure 30.21 in
Visibility 10.0 miles
Clouds Clear
Dew Point 56 °F
Humidity 53%
Rainfall 0.00 in
Snow Depth Not available.
UV 6 out of 12
Pollen 8.30 out of 12
Air Quality Not available.
Flu Activity Sporadic
METAR KCKB 251353Z 20009KT 10SM CLR 23/13 A3025 RMK AO2 SLP228 T02330133

More Conditions Fewer Conditions

Pressure 30.21 in
Visibility 10.0 miles
Clouds Clear
Dew Point 56 °F
Humidity 53%
Rainfall 0.00 in
Snow Depth Not available.
UV 6 out of 12
Pollen 8.30 out of 12
Air Quality Not available.
Flu Activity Sporadic
METAR KCKB 251353Z 20009KT 10SM CLR 23/13 A3025 RMK AO2 SLP228 T02330133

More Conditions Fewer Conditions

10-Day Weather Forecast

Almanac

Astronomy

May. 25, 2015 Rise Set
Actual Time
Civil Twilight
Nautical Twilight
Astronomical Twilight
Moon
Length of Visible Light
Length of Day
Tomorrow will be .
, % of the Moon is Illuminated

Today's Extremes

State Highs State Lows

Community

WunderPhotos

Upload Photos

1,824,024 photos uploaded!

WunderBlogs® & News

Nearby

Air Quality

  Air Quality AQ Index Pollutant
Not available.

Snow Depth

Station Depth Elevation

Earthquake Activity

City Distance Mag. Time & Date
Minimum magnitude displayed is 2.5.

Coastal Water Temperatures

Place Temperature

Stations

Nearby Weather Stations

Station Location Temp. Windchill Dew Point Humidity Wind Precip. Elev Updated Type